sensor_id;sensor_type;location;lat;lon;timestamp;temperature;humidity
46139;DHT22;32398;49.112;8.598;2023-10-09T00:01:01;17.10;74.90
46139;DHT22;32398;49.112;8.598;2023-10-09T00:03:36;17.10;74.90
46139;DHT22;32398;49.112;8.598;2023-10-09T00:06:03;17.10;75.70
46139;DHT22;32398;49.112;8.598;2023-10-09T00:08:30;17.10;74.90
46139;DHT22;32398;49.112;8.598;2023-10-09T00:10:59;17.10;75.00
46139;DHT22;32398;49.112;8.598;2023-10-09T00:13:38;17.00;74.70
46139;DHT22;32398;49.112;8.598;2023-10-09T00:16:14;17.00;74.70
46139;DHT22;32398;49.112;8.598;2023-10-09T00:18:50;17.00;74.60
46139;DHT22;32398;49.112;8.598;2023-10-09T00:21:19;17.00;74.50
46139;DHT22;32398;49.112;8.598;2023-10-09T00:23:48;17.00;74.40
46139;DHT22;32398;49.112;8.598;2023-10-09T00:26:19;17.00;74.40
46139;DHT22;32398;49.112;8.598;2023-10-09T00:28:46;17.00;74.30
46139;DHT22;32398;49.112;8.598;2023-10-09T00:31:13;17.00;74.30
46139;DHT22;32398;49.112;8.598;2023-10-09T00:33:41;17.00;74.30
46139;DHT22;32398;49.112;8.598;2023-10-09T00:36:09;17.00;74.20
46139;DHT22;32398;49.112;8.598;2023-10-09T00:38:38;16.90;74.10
46139;DHT22;32398;49.112;8.598;2023-10-09T00:41:09;17.00;74.00
46139;DHT22;32398;49.112;8.598;2023-10-09T00:43:38;16.90;73.90
46139;DHT22;32398;49.112;8.598;2023-10-09T00:46:08;17.00;74.00
46139;DHT22;32398;49.112;8.598;2023-10-09T00:48:39;16.90;74.00
46139;DHT22;32398;49.112;8.598;2023-10-09T00:51:06;17.00;74.00
46139;DHT22;32398;49.112;8.598;2023-10-09T00:53:44;17.00;74.00
46139;DHT22;32398;49.112;8.598;2023-10-09T00:56:10;16.90;73.70
46139;DHT22;32398;49.112;8.598;2023-10-09T00:58:44;16.90;73.60
46139;DHT22;32398;49.112;8.598;2023-10-09T01:01:12;17.00;73.50
46139;DHT22;32398;49.112;8.598;2023-10-09T01:03:41;16.90;73.30
46139;DHT22;32398;49.112;8.598;2023-10-09T01:06:09;16.90;73.10
46139;DHT22;32398;49.112;8.598;2023-10-09T01:08:47;17.00;73.10
46139;DHT22;32398;49.112;8.598;2023-10-09T01:11:32;16.90;73.20
46139;DHT22;32398;49.112;8.598;2023-10-09T01:14:00;16.90;73.20
46139;DHT22;32398;49.112;8.598;2023-10-09T01:16:37;16.90;73.10
46139;DHT22;32398;49.112;8.598;2023-10-09T01:19:06;16.90;73.00
46139;DHT22;32398;49.112;8.598;2023-10-09T01:21:39;16.90;73.00
46139;DHT22;32398;49.112;8.598;2023-10-09T01:24:07;17.00;73.00
46139;DHT22;32398;49.112;8.598;2023-10-09T01:26:34;16.90;72.90
46139;DHT22;32398;49.112;8.598;2023-10-09T01:29:09;17.00;72.90
46139;DHT22;32398;49.112;8.598;2023-10-09T01:31:39;16.90;72.80
46139;DHT22;32398;49.112;8.598;2023-10-09T01:34:10;16.90;72.70
46139;DHT22;32398;49.112;8.598;2023-10-09T01:36:39;16.90;72.50
46139;DHT22;32398;49.112;8.598;2023-10-09T01:39:08;16.90;72.50
46139;DHT22;32398;49.112;8.598;2023-10-09T01:41:35;16.90;72.40
46139;DHT22;32398;49.112;8.598;2023-10-09T01:44:11;16.90;72.30
46139;DHT22;32398;49.112;8.598;2023-10-09T01:46:38;16.90;72.40
46139;DHT22;32398;49.112;8.598;2023-10-09T01:49:04;16.90;72.40
46139;DHT22;32398;49.112;8.598;2023-10-09T01:51:42;16.90;72.40
46139;DHT22;32398;49.112;8.598;2023-10-09T01:54:10;16.90;72.40
46139;DHT22;32398;49.112;8.598;2023-10-09T01:56:52;16.90;72.40
46139;DHT22;32398;49.112;8.598;2023-10-09T01:59:21;16.90;72.50
46139;DHT22;32398;49.112;8.598;2023-10-09T02:01:48;16.90;72.60
46139;DHT22;32398;49.112;8.598;2023-10-09T02:04:14;16.90;72.70
46139;DHT22;32398;49.112;8.598;2023-10-09T02:06:45;16.90;72.70
46139;DHT22;32398;49.112;8.598;2023-10-09T02:09:17;16.90;72.80
46139;DHT22;32398;49.112;8.598;2023-10-09T02:11:48;16.90;72.80
46139;DHT22;32398;49.112;8.598;2023-10-09T02:14:16;16.90;72.90
46139;DHT22;32398;49.112;8.598;2023-10-09T02:16:46;16.90;72.90
46139;DHT22;32398;49.112;8.598;2023-10-09T02:19:28;16.90;72.80
46139;DHT22;32398;49.112;8.598;2023-10-09T02:21:57;16.90;72.90
46139;DHT22;32398;49.112;8.598;2023-10-09T02:24:27;16.90;72.90
46139;DHT22;32398;49.112;8.598;2023-10-09T02:27:07;16.90;72.80
46139;DHT22;32398;49.112;8.598;2023-10-09T02:29:34;16.90;72.80
46139;DHT22;32398;49.112;8.598;2023-10-09T02:32:03;16.80;72.70
46139;DHT22;32398;49.112;8.598;2023-10-09T02:34:39;16.80;72.70
46139;DHT22;32398;49.112;8.598;2023-10-09T02:37:06;16.80;72.50
46139;DHT22;32398;49.112;8.598;2023-10-09T02:39:39;16.90;72.50
46139;DHT22;32398;49.112;8.598;2023-10-09T02:42:12;16.80;72.50
46139;DHT22;32398;49.112;8.598;2023-10-09T02:44:49;16.90;72.40
46139;DHT22;32398;49.112;8.598;2023-10-09T02:47:17;16.80;72.20
46139;DHT22;32398;49.112;8.598;2023-10-09T02:49:46;16.80;72.10
46139;DHT22;32398;49.112;8.598;2023-10-09T02:52:14;16.90;72.20
46139;DHT22;32398;49.112;8.598;2023-10-09T02:54:45;16.80;72.00
46139;DHT22;32398;49.112;8.598;2023-10-09T02:57:12;16.80;72.00
46139;DHT22;32398;49.112;8.598;2023-10-09T02:59:47;16.80;72.00
46139;DHT22;32398;49.112;8.598;2023-10-09T03:02:17;16.80;72.00
46139;DHT22;32398;49.112;8.598;2023-10-09T03:04:43;16.80;72.00
46139;DHT22;32398;49.112;8.598;2023-10-09T03:07:10;16.80;72.00
46139;DHT22;32398;49.112;8.598;2023-10-09T03:09:39;16.90;72.10
46139;DHT22;32398;49.112;8.598;2023-10-09T03:12:07;16.80;71.90
46139;DHT22;32398;49.112;8.598;2023-10-09T03:14:35;16.80;72.00
46139;DHT22;32398;49.112;8.598;2023-10-09T03:17:03;16.80;72.00
46139;DHT22;32398;49.112;8.598;2023-10-09T03:19:31;16.80;72.80
46139;DHT22;32398;49.112;8.598;2023-10-09T03:21:59;16.80;72.10
46139;DHT22;32398;49.112;8.598;2023-10-09T03:24:25;16.80;72.10
46139;DHT22;32398;49.112;8.598;2023-10-09T03:26:52;16.80;72.20
46139;DHT22;32398;49.112;8.598;2023-10-09T03:29:22;16.80;72.20
46139;DHT22;32398;49.112;8.598;2023-10-09T03:31:49;16.80;72.30
46139;DHT22;32398;49.112;8.598;2023-10-09T03:34:16;16.80;72.30
46139;DHT22;32398;49.112;8.598;2023-10-09T03:36:43;16.80;72.40
46139;DHT22;32398;49.112;8.598;2023-10-09T03:39:10;16.90;72.70
46139;DHT22;32398;49.112;8.598;2023-10-09T03:41:50;16.80;72.70
46139;DHT22;32398;49.112;8.598;2023-10-09T03:44:16;16.80;72.80
46139;DHT22;32398;49.112;8.598;2023-10-09T03:46:45;16.80;72.90
46139;DHT22;32398;49.112;8.598;2023-10-09T03:49:12;16.80;73.60
46139;DHT22;32398;49.112;8.598;2023-10-09T03:51:41;16.80;73.00
46139;DHT22;32398;49.112;8.598;2023-10-09T03:54:07;16.80;73.00
46139;DHT22;32398;49.112;8.598;2023-10-09T03:56:35;16.80;73.10
46139;DHT22;32398;49.112;8.598;2023-10-09T03:59:01;16.80;73.30
46139;DHT22;32398;49.112;8.598;2023-10-09T04:01:29;16.80;73.20
46139;DHT22;32398;49.112;8.598;2023-10-09T04:04:05;16.70;73.30
46139;DHT22;32398;49.112;8.598;2023-10-09T04:06:35;16.80;73.50
46139;DHT22;32398;49.112;8.598;2023-10-09T04:09:03;16.70;73.40
46139;DHT22;32398;49.112;8.598;2023-10-09T04:11:53;16.70;73.40
46139;DHT22;32398;49.112;8.598;2023-10-09T04:14:38;16.70;73.40
46139;DHT22;32398;49.112;8.598;2023-10-09T04:17:13;16.70;73.50
46139;DHT22;32398;49.112;8.598;2023-10-09T04:19:55;16.70;73.50
46139;DHT22;32398;49.112;8.598;2023-10-09T04:22:36;16.70;73.60
46139;DHT22;32398;49.112;8.598;2023-10-09T04:25:05;16.70;73.70
46139;DHT22;32398;49.112;8.598;2023-10-09T04:27:32;16.70;73.80
46139;DHT22;32398;49.112;8.598;2023-10-09T04:30:02;16.60;73.80
46139;DHT22;32398;49.112;8.598;2023-10-09T04:32:32;16.70;74.00
46139;DHT22;32398;49.112;8.598;2023-10-09T04:35:01;16.70;74.10
46139;DHT22;32398;49.112;8.598;2023-10-09T04:37:41;16.60;74.20
46139;DHT22;32398;49.112;8.598;2023-10-09T04:40:10;16.60;74.20
46139;DHT22;32398;49.112;8.598;2023-10-09T04:42:59;16.60;74.20
46139;DHT22;32398;49.112;8.598;2023-10-09T04:45:25;16.60;75.10
46139;DHT22;32398;49.112;8.598;2023-10-09T04:48:09;16.60;74.50
46139;DHT22;32398;49.112;8.598;2023-10-09T04:50:37;16.60;74.40
46139;DHT22;32398;49.112;8.598;2023-10-09T04:53:20;16.60;74.50
46139;DHT22;32398;49.112;8.598;2023-10-09T04:55:50;16.50;74.50
46139;DHT22;32398;49.112;8.598;2023-10-09T04:58:23;16.50;74.70
46139;DHT22;32398;49.112;8.598;2023-10-09T05:00:52;16.50;74.60
46139;DHT22;32398;49.112;8.598;2023-10-09T05:03:37;16.50;75.10
46139;DHT22;32398;49.112;8.598;2023-10-09T05:06:12;16.50;74.60
46139;DHT22;32398;49.112;8.598;2023-10-09T05:09:08;16.50;74.50
46139;DHT22;32398;49.112;8.598;2023-10-09T05:11:38;16.50;74.40
46139;DHT22;32398;49.112;8.598;2023-10-09T05:14:19;16.50;74.30
46139;DHT22;32398;49.112;8.598;2023-10-09T05:16:52;16.50;74.10
46139;DHT22;32398;49.112;8.598;2023-10-09T05:19:26;16.50;73.90
46139;DHT22;32398;49.112;8.598;2023-10-09T05:22:00;16.40;73.80
46139;DHT22;32398;49.112;8.598;2023-10-09T05:24:32;16.50;73.90
46139;DHT22;32398;49.112;8.598;2023-10-09T05:27:09;16.40;73.80
46139;DHT22;32398;49.112;8.598;2023-10-09T05:29:43;16.40;73.70
46139;DHT22;32398;49.112;8.598;2023-10-09T05:32:23;16.40;73.60
46139;DHT22;32398;49.112;8.598;2023-10-09T05:34:55;16.40;73.70
46139;DHT22;32398;49.112;8.598;2023-10-09T05:37:34;16.40;73.80
46139;DHT22;32398;49.112;8.598;2023-10-09T05:40:08;16.40;73.90
46139;DHT22;32398;49.112;8.598;2023-10-09T05:42:49;16.40;73.90
46139;DHT22;32398;49.112;8.598;2023-10-09T05:45:25;16.40;74.00
46139;DHT22;32398;49.112;8.598;2023-10-09T05:48:09;16.40;74.00
46139;DHT22;32398;49.112;8.598;2023-10-09T05:50:50;16.40;74.00
46139;DHT22;32398;49.112;8.598;2023-10-09T05:53:31;16.40;74.10
46139;DHT22;32398;49.112;8.598;2023-10-09T05:56:21;16.40;74.00
46139;DHT22;32398;49.112;8.598;2023-10-09T05:59:05;16.40;74.00
46139;DHT22;32398;49.112;8.598;2023-10-09T06:01:50;16.40;74.10
46139;DHT22;32398;49.112;8.598;2023-10-09T06:04:34;16.40;74.10
46139;DHT22;32398;49.112;8.598;2023-10-09T06:07:14;16.40;74.10
46139;DHT22;32398;49.112;8.598;2023-10-09T06:09:51;16.40;74.10
46139;DHT22;32398;49.112;8.598;2023-10-09T06:12:18;16.40;74.20
46139;DHT22;32398;49.112;8.598;2023-10-09T06:15:12;16.40;74.20
46139;DHT22;32398;49.112;8.598;2023-10-09T06:17:55;16.40;74.20
46139;DHT22;32398;49.112;8.598;2023-10-09T06:20:34;16.40;74.40
46139;DHT22;32398;49.112;8.598;2023-10-09T06:23:32;16.40;74.50
46139;DHT22;32398;49.112;8.598;2023-10-09T06:26:12;16.40;74.50
46139;DHT22;32398;49.112;8.598;2023-10-09T06:28:50;16.40;74.70
46139;DHT22;32398;49.112;8.598;2023-10-09T06:31:38;16.40;74.70
46139;DHT22;32398;49.112;8.598;2023-10-09T06:34:18;16.30;74.60
46139;DHT22;32398;49.112;8.598;2023-10-09T06:36:47;16.40;74.80
46139;DHT22;32398;49.112;8.598;2023-10-09T06:39:18;16.40;74.80
46139;DHT22;32398;49.112;8.598;2023-10-09T06:42:02;16.40;74.90
46139;DHT22;32398;49.112;8.598;2023-10-09T06:44:35;16.40;74.90
46139;DHT22;32398;49.112;8.598;2023-10-09T06:47:17;16.40;74.90
46139;DHT22;32398;49.112;8.598;2023-10-09T06:49:44;16.40;75.00
46139;DHT22;32398;49.112;8.598;2023-10-09T06:52:29;16.40;75.00
46139;DHT22;32398;49.112;8.598;2023-10-09T06:55:22;16.30;75.00
46139;DHT22;32398;49.112;8.598;2023-10-09T06:57:58;16.40;75.10
46139;DHT22;32398;49.112;8.598;2023-10-09T07:00:26;16.30;75.10
46139;DHT22;32398;49.112;8.598;2023-10-09T07:03:12;16.30;75.10
46139;DHT22;32398;49.112;8.598;2023-10-09T07:05:39;16.30;75.20
46139;DHT22;32398;49.112;8.598;2023-10-09T07:08:25;16.30;75.00
46139;DHT22;32398;49.112;8.598;2023-10-09T07:10:57;16.30;75.10
46139;DHT22;32398;49.112;8.598;2023-10-09T07:13:46;16.40;75.00
46139;DHT22;32398;49.112;8.598;2023-10-09T07:16:21;16.30;75.00
46139;DHT22;32398;49.112;8.598;2023-10-09T07:18:55;16.30;75.00
46139;DHT22;32398;49.112;8.598;2023-10-09T07:21:35;16.30;75.00
46139;DHT22;32398;49.112;8.598;2023-10-09T07:24:04;16.30;74.90
46139;DHT22;32398;49.112;8.598;2023-10-09T07:26:39;16.40;75.00
46139;DHT22;32398;49.112;8.598;2023-10-09T07:29:12;16.40;75.00
46139;DHT22;32398;49.112;8.598;2023-10-09T07:31:47;16.40;75.80
46139;DHT22;32398;49.112;8.598;2023-10-09T07:34:24;16.40;74.90
46139;DHT22;32398;49.112;8.598;2023-10-09T07:37:13;16.40;74.90
46139;DHT22;32398;49.112;8.598;2023-10-09T07:39:44;16.30;74.80
46139;DHT22;32398;49.112;8.598;2023-10-09T07:42:22;16.40;74.80
46139;DHT22;32398;49.112;8.598;2023-10-09T07:44:59;16.40;74.80
46139;DHT22;32398;49.112;8.598;2023-10-09T07:47:37;16.40;74.90
46139;DHT22;32398;49.112;8.598;2023-10-09T07:50:27;16.30;74.80
46139;DHT22;32398;49.112;8.598;2023-10-09T07:53:04;16.40;74.80
46139;DHT22;32398;49.112;8.598;2023-10-09T07:55:43;16.40;74.80
46139;DHT22;32398;49.112;8.598;2023-10-09T07:58:19;16.40;74.80
46139;DHT22;32398;49.112;8.598;2023-10-09T08:00:51;16.40;74.90
46139;DHT22;32398;49.112;8.598;2023-10-09T08:03:47;16.40;74.90
46139;DHT22;32398;49.112;8.598;2023-10-09T08:06:23;16.40;74.90
46139;DHT22;32398;49.112;8.598;2023-10-09T08:09:04;16.40;74.90
46139;DHT22;32398;49.112;8.598;2023-10-09T08:11:44;16.40;74.90
46139;DHT22;32398;49.112;8.598;2023-10-09T08:14:39;16.50;75.00
46139;DHT22;32398;49.112;8.598;2023-10-09T08:17:13;16.50;75.00
46139;DHT22;32398;49.112;8.598;2023-10-09T08:19:45;16.50;75.00
46139;DHT22;32398;49.112;8.598;2023-10-09T08:22:23;16.50;75.00
46139;DHT22;32398;49.112;8.598;2023-10-09T08:25:08;16.50;75.00
46139;DHT22;32398;49.112;8.598;2023-10-09T08:27:51;16.50;75.10
46139;DHT22;32398;49.112;8.598;2023-10-09T08:30:22;16.50;75.00
46139;DHT22;32398;49.112;8.598;2023-10-09T08:32:54;16.50;75.00
46139;DHT22;32398;49.112;8.598;2023-10-09T08:35:29;16.60;75.10
46139;DHT22;32398;49.112;8.598;2023-10-09T08:37:59;16.60;75.10
46139;DHT22;32398;49.112;8.598;2023-10-09T08:40:33;16.60;75.10
46139;DHT22;32398;49.112;8.598;2023-10-09T08:43:05;16.60;75.00
46139;DHT22;32398;49.112;8.598;2023-10-09T08:45:35;16.60;75.00
46139;DHT22;32398;49.112;8.598;2023-10-09T08:48:02;16.60;75.00
46139;DHT22;32398;49.112;8.598;2023-10-09T08:50:31;16.60;75.00
46139;DHT22;32398;49.112;8.598;2023-10-09T08:53:00;16.60;75.00
46139;DHT22;32398;49.112;8.598;2023-10-09T08:55:28;16.70;75.10
46139;DHT22;32398;49.112;8.598;2023-10-09T08:57:54;16.70;75.10
46139;DHT22;32398;49.112;8.598;2023-10-09T09:00:23;16.70;75.10
46139;DHT22;32398;49.112;8.598;2023-10-09T09:02:49;16.70;75.10
46139;DHT22;32398;49.112;8.598;2023-10-09T09:05:18;16.70;75.00
46139;DHT22;32398;49.112;8.598;2023-10-09T09:07:46;16.70;75.00
46139;DHT22;32398;49.112;8.598;2023-10-09T09:10:14;16.80;75.00
46139;DHT22;32398;49.112;8.598;2023-10-09T09:12:43;16.80;75.00
46139;DHT22;32398;49.112;8.598;2023-10-09T09:15:13;16.80;74.90
46139;DHT22;32398;49.112;8.598;2023-10-09T09:17:44;16.80;74.90
46139;DHT22;32398;49.112;8.598;2023-10-09T09:20:20;16.80;74.90
46139;DHT22;32398;49.112;8.598;2023-10-09T09:22:53;16.90;75.00
46139;DHT22;32398;49.112;8.598;2023-10-09T09:25:21;16.90;75.00
46139;DHT22;32398;49.112;8.598;2023-10-09T09:27:49;16.90;75.00
46139;DHT22;32398;49.112;8.598;2023-10-09T09:30:24;17.00;74.90
46139;DHT22;32398;49.112;8.598;2023-10-09T09:32:52;17.00;74.90
46139;DHT22;32398;49.112;8.598;2023-10-09T09:35:32;17.00;74.90
46139;DHT22;32398;49.112;8.598;2023-10-09T09:38:00;17.00;74.90
46139;DHT22;32398;49.112;8.598;2023-10-09T09:40:30;17.00;74.80
46139;DHT22;32398;49.112;8.598;2023-10-09T09:42:58;17.10;74.90
46139;DHT22;32398;49.112;8.598;2023-10-09T09:45:31;17.10;74.90
46139;DHT22;32398;49.112;8.598;2023-10-09T09:47:59;17.10;74.90
46139;DHT22;32398;49.112;8.598;2023-10-09T09:50:31;17.10;74.80
46139;DHT22;32398;49.112;8.598;2023-10-09T09:52:59;17.20;75.00
46139;DHT22;32398;49.112;8.598;2023-10-09T09:55:28;17.20;74.90
46139;DHT22;32398;49.112;8.598;2023-10-09T09:57:57;17.30;75.00
46139;DHT22;32398;49.112;8.598;2023-10-09T10:00:25;17.30;75.00
46139;DHT22;32398;49.112;8.598;2023-10-09T10:02:57;17.30;74.90
46139;DHT22;32398;49.112;8.598;2023-10-09T10:05:24;17.40;74.90
46139;DHT22;32398;49.112;8.598;2023-10-09T10:07:55;17.40;74.80
46139;DHT22;32398;49.112;8.598;2023-10-09T10:10:35;17.40;74.70
46139;DHT22;32398;49.112;8.598;2023-10-09T10:13:13;17.40;74.70
46139;DHT22;32398;49.112;8.598;2023-10-09T10:15:59;17.50;74.80
46139;DHT22;32398;49.112;8.598;2023-10-09T10:18:30;17.40;74.70
46139;DHT22;32398;49.112;8.598;2023-10-09T10:21:11;17.50;74.80
46139;DHT22;32398;49.112;8.598;2023-10-09T10:23:41;17.50;74.80
46139;DHT22;32398;49.112;8.598;2023-10-09T10:26:20;17.50;74.70
46139;DHT22;32398;49.112;8.598;2023-10-09T10:31:56;17.50;74.80
46139;DHT22;32398;49.112;8.598;2023-10-09T10:34:25;17.60;74.80
46139;DHT22;32398;49.112;8.598;2023-10-09T10:36:52;17.60;74.90
46139;DHT22;32398;49.112;8.598;2023-10-09T10:39:25;17.60;74.90
46139;DHT22;32398;49.112;8.598;2023-10-09T10:42:19;17.70;74.90
46139;DHT22;32398;49.112;8.598;2023-10-09T10:45:18;17.70;74.90
46139;DHT22;32398;49.112;8.598;2023-10-09T10:48:01;17.70;74.90
46139;DHT22;32398;49.112;8.598;2023-10-09T10:50:33;17.70;74.90
46139;DHT22;32398;49.112;8.598;2023-10-09T10:53:08;17.80;75.00
46139;DHT22;32398;49.112;8.598;2023-10-09T10:55:38;17.80;75.00
46139;DHT22;32398;49.112;8.598;2023-10-09T10:58:16;17.80;74.90
46139;DHT22;32398;49.112;8.598;2023-10-09T11:00:54;17.80;75.00
46139;DHT22;32398;49.112;8.598;2023-10-09T11:03:40;17.90;75.10
46139;DHT22;32398;49.112;8.598;2023-10-09T11:06:34;17.90;75.00
46139;DHT22;32398;49.112;8.598;2023-10-09T11:09:04;17.90;75.00
46139;DHT22;32398;49.112;8.598;2023-10-09T11:11:47;18.00;75.10
46139;DHT22;32398;49.112;8.598;2023-10-09T11:14:13;18.00;75.40
46139;DHT22;32398;49.112;8.598;2023-10-09T11:16:40;18.00;75.40
46139;DHT22;32398;49.112;8.598;2023-10-09T11:19:13;18.00;75.30
46139;DHT22;32398;49.112;8.598;2023-10-09T11:21:50;18.00;75.30
46139;DHT22;32398;49.112;8.598;2023-10-09T11:24:25;18.10;75.30
46139;DHT22;32398;49.112;8.598;2023-10-09T11:26:51;18.00;75.50
46139;DHT22;32398;49.112;8.598;2023-10-09T11:29:21;18.10;75.50
46139;DHT22;32398;49.112;8.598;2023-10-09T11:31:58;18.10;75.50
46139;DHT22;32398;49.112;8.598;2023-10-09T11:34:25;18.10;75.30
46139;DHT22;32398;49.112;8.598;2023-10-09T11:37:01;18.20;75.40
46139;DHT22;32398;49.112;8.598;2023-10-09T11:39:28;18.20;75.30
46139;DHT22;32398;49.112;8.598;2023-10-09T11:42:00;18.20;75.40
46139;DHT22;32398;49.112;8.598;2023-10-09T11:44:38;18.20;75.30
46139;DHT22;32398;49.112;8.598;2023-10-09T11:47:06;18.30;75.20
46139;DHT22;32398;49.112;8.598;2023-10-09T11:49:58;18.30;75.20
46139;DHT22;32398;49.112;8.598;2023-10-09T11:52:56;18.40;75.40
46139;DHT22;32398;49.112;8.598;2023-10-09T11:55:35;18.40;75.30
46139;DHT22;32398;49.112;8.598;2023-10-09T11:58:01;18.40;75.10
46139;DHT22;32398;49.112;8.598;2023-10-09T12:00:30;18.50;75.00
46139;DHT22;32398;49.112;8.598;2023-10-09T12:03:08;18.50;74.90
46139;DHT22;32398;49.112;8.598;2023-10-09T12:05:34;18.60;74.90
46139;DHT22;32398;49.112;8.598;2023-10-09T12:08:03;18.70;74.80
46139;DHT22;32398;49.112;8.598;2023-10-09T12:10:33;18.80;74.50
46139;DHT22;32398;49.112;8.598;2023-10-09T12:13:03;18.90;74.10
46139;DHT22;32398;49.112;8.598;2023-10-09T12:15:30;19.00;73.90
46139;DHT22;32398;49.112;8.598;2023-10-09T12:18:03;19.10;73.70
46139;DHT22;32398;49.112;8.598;2023-10-09T12:20:30;19.10;73.40
46139;DHT22;32398;49.112;8.598;2023-10-09T12:22:57;19.10;73.10
46139;DHT22;32398;49.112;8.598;2023-10-09T12:25:25;19.20;72.70
46139;DHT22;32398;49.112;8.598;2023-10-09T12:27:56;19.30;72.50
46139;DHT22;32398;49.112;8.598;2023-10-09T12:30:23;19.30;72.20
46139;DHT22;32398;49.112;8.598;2023-10-09T12:32:53;19.30;72.30
46139;DHT22;32398;49.112;8.598;2023-10-09T12:35:20;19.30;71.90
46139;DHT22;32398;49.112;8.598;2023-10-09T12:37:46;19.30;72.10
46139;DHT22;32398;49.112;8.598;2023-10-09T12:40:15;19.40;71.90
46139;DHT22;32398;49.112;8.598;2023-10-09T12:42:51;19.40;71.80
46139;DHT22;32398;49.112;8.598;2023-10-09T12:45:20;19.40;71.10
46139;DHT22;32398;49.112;8.598;2023-10-09T12:47:52;19.50;70.80
46139;DHT22;32398;49.112;8.598;2023-10-09T12:50:18;19.50;71.10
46139;DHT22;32398;49.112;8.598;2023-10-09T12:52:53;19.60;70.90
46139;DHT22;32398;49.112;8.598;2023-10-09T12:55:20;19.60;70.70
46139;DHT22;32398;49.112;8.598;2023-10-09T12:57:47;19.70;70.70
46139;DHT22;32398;49.112;8.598;2023-10-09T13:00:18;19.70;69.50
46139;DHT22;32398;49.112;8.598;2023-10-09T13:02:50;19.80;69.20
46139;DHT22;32398;49.112;8.598;2023-10-09T13:05:17;19.90;69.30
46139;DHT22;32398;49.112;8.598;2023-10-09T13:07:51;20.00;67.50
46139;DHT22;32398;49.112;8.598;2023-10-09T13:10:18;20.10;67.60
46139;DHT22;32398;49.112;8.598;2023-10-09T13:12:44;20.20;66.60
46139;DHT22;32398;49.112;8.598;2023-10-09T13:15:11;20.20;65.30
46139;DHT22;32398;49.112;8.598;2023-10-09T13:17:40;20.30;65.20
46139;DHT22;32398;49.112;8.598;2023-10-09T13:20:07;20.40;65.40
46139;DHT22;32398;49.112;8.598;2023-10-09T13:22:38;20.50;64.70
46139;DHT22;32398;49.112;8.598;2023-10-09T13:25:06;20.50;64.30
46139;DHT22;32398;49.112;8.598;2023-10-09T13:27:39;20.60;64.10
46139;DHT22;32398;49.112;8.598;2023-10-09T13:30:06;20.70;64.30
46139;DHT22;32398;49.112;8.598;2023-10-09T13:32:34;20.70;64.10
46139;DHT22;32398;49.112;8.598;2023-10-09T13:35:03;20.80;64.50
46139;DHT22;32398;49.112;8.598;2023-10-09T13:37:31;20.90;64.50
46139;DHT22;32398;49.112;8.598;2023-10-09T13:40:02;20.90;62.90
46139;DHT22;32398;49.112;8.598;2023-10-09T13:42:35;21.00;63.10
46139;DHT22;32398;49.112;8.598;2023-10-09T13:45:02;21.00;63.00
46139;DHT22;32398;49.112;8.598;2023-10-09T13:47:32;21.10;63.60
46139;DHT22;32398;49.112;8.598;2023-10-09T13:49:58;21.10;63.30
46139;DHT22;32398;49.112;8.598;2023-10-09T13:52:27;21.10;62.70
46139;DHT22;32398;49.112;8.598;2023-10-09T13:54:53;21.20;62.40
46139;DHT22;32398;49.112;8.598;2023-10-09T13:57:20;21.20;63.20
46139;DHT22;32398;49.112;8.598;2023-10-09T13:59:47;21.20;63.00
46139;DHT22;32398;49.112;8.598;2023-10-09T14:02:15;21.20;62.60
46139;DHT22;32398;49.112;8.598;2023-10-09T14:04:44;21.20;63.10
46139;DHT22;32398;49.112;8.598;2023-10-09T14:07:11;21.20;63.00
46139;DHT22;32398;49.112;8.598;2023-10-09T14:09:43;21.20;63.10
46139;DHT22;32398;49.112;8.598;2023-10-09T14:12:21;21.10;63.10
46139;DHT22;32398;49.112;8.598;2023-10-09T14:14:50;21.20;63.50
46139;DHT22;32398;49.112;8.598;2023-10-09T14:17:19;21.20;63.70
46139;DHT22;32398;49.112;8.598;2023-10-09T14:19:49;21.20;63.20
46139;DHT22;32398;49.112;8.598;2023-10-09T14:22:16;21.10;63.00
46139;DHT22;32398;49.112;8.598;2023-10-09T14:24:44;21.20;63.40
46139;DHT22;32398;49.112;8.598;2023-10-09T14:27:11;21.20;63.00
46139;DHT22;32398;49.112;8.598;2023-10-09T14:29:43;21.20;63.80
46139;DHT22;32398;49.112;8.598;2023-10-09T14:32:10;21.20;63.90
46139;DHT22;32398;49.112;8.598;2023-10-09T14:34:38;21.20;64.00
46139;DHT22;32398;49.112;8.598;2023-10-09T14:37:08;21.20;64.10
46139;DHT22;32398;49.112;8.598;2023-10-09T14:39:37;21.20;63.80
46139;DHT22;32398;49.112;8.598;2023-10-09T14:42:05;21.20;64.20
46139;DHT22;32398;49.112;8.598;2023-10-09T14:44:35;21.20;64.30
46139;DHT22;32398;49.112;8.598;2023-10-09T14:47:02;21.20;64.10
46139;DHT22;32398;49.112;8.598;2023-10-09T14:49:30;21.30;64.20
46139;DHT22;32398;49.112;8.598;2023-10-09T14:52:00;21.30;64.50
46139;DHT22;32398;49.112;8.598;2023-10-09T14:54:27;21.30;64.60
46139;DHT22;32398;49.112;8.598;2023-10-09T14:56:53;21.30;64.80
46139;DHT22;32398;49.112;8.598;2023-10-09T14:59:23;21.30;64.80
46139;DHT22;32398;49.112;8.598;2023-10-09T15:01:50;21.30;64.80
46139;DHT22;32398;49.112;8.598;2023-10-09T15:04:19;21.30;65.00
46139;DHT22;32398;49.112;8.598;2023-10-09T15:06:46;21.30;65.10
46139;DHT22;32398;49.112;8.598;2023-10-09T15:09:14;21.30;65.00
46139;DHT22;32398;49.112;8.598;2023-10-09T15:11:47;21.30;65.20
46139;DHT22;32398;49.112;8.598;2023-10-09T15:14:14;21.30;65.00
46139;DHT22;32398;49.112;8.598;2023-10-09T15:16:42;21.30;65.20
46139;DHT22;32398;49.112;8.598;2023-10-09T15:19:09;21.30;65.30
46139;DHT22;32398;49.112;8.598;2023-10-09T15:21:36;21.30;65.30
46139;DHT22;32398;49.112;8.598;2023-10-09T15:24:09;21.30;65.30
46139;DHT22;32398;49.112;8.598;2023-10-09T15:26:37;21.40;65.40
46139;DHT22;32398;49.112;8.598;2023-10-09T15:29:05;21.30;65.50
46139;DHT22;32398;49.112;8.598;2023-10-09T15:31:32;21.40;65.70
46139;DHT22;32398;49.112;8.598;2023-10-09T15:34:00;21.40;65.90
46139;DHT22;32398;49.112;8.598;2023-10-09T15:36:28;21.40;65.90
46139;DHT22;32398;49.112;8.598;2023-10-09T15:38:57;21.40;66.10
46139;DHT22;32398;49.112;8.598;2023-10-09T15:41:27;21.30;66.10
46139;DHT22;32398;49.112;8.598;2023-10-09T15:43:55;21.40;66.30
46139;DHT22;32398;49.112;8.598;2023-10-09T15:46:22;21.30;66.30
46139;DHT22;32398;49.112;8.598;2023-10-09T15:48:49;21.30;66.20
46139;DHT22;32398;49.112;8.598;2023-10-09T15:51:17;21.30;66.40
46139;DHT22;32398;49.112;8.598;2023-10-09T15:53:44;21.30;66.50
46139;DHT22;32398;49.112;8.598;2023-10-09T15:56:11;21.30;66.40
46139;DHT22;32398;49.112;8.598;2023-10-09T15:58:38;21.30;66.60
46139;DHT22;32398;49.112;8.598;2023-10-09T16:01:08;21.30;66.50
46139;DHT22;32398;49.112;8.598;2023-10-09T16:03:38;21.30;66.50
46139;DHT22;32398;49.112;8.598;2023-10-09T16:06:05;21.30;66.60